createdAt,value
2017-09-15T00:00:10.362Z,0
2017-09-15T00:01:12.200Z,0
2017-09-15T00:02:14.771Z,0
2017-09-15T00:03:16.798Z,0
2017-09-15T00:04:19.084Z,0
2017-09-15T00:05:21.390Z,0
2017-09-15T00:06:23.402Z,0
2017-09-15T00:07:25.149Z,0
2017-09-15T00:08:26.900Z,0
2017-09-15T00:09:29.156Z,0
2017-09-15T00:10:31.085Z,0
2017-09-15T00:11:32.862Z,0
2017-09-15T00:12:34.610Z,0
2017-09-15T00:13:36.570Z,0
2017-09-15T00:14:38.322Z,0
2017-09-15T00:15:40.118Z,0
2017-09-15T00:16:41.819Z,0
2017-09-15T00:17:43.551Z,0
2017-09-15T00:18:45.256Z,0
2017-09-15T00:19:47.008Z,0
2017-09-15T00:20:49.720Z,0
2017-09-15T00:21:51.642Z,0
2017-09-15T00:22:53.789Z,0
2017-09-15T00:23:55.521Z,0
2017-09-15T00:24:57.921Z,0
2017-09-15T00:25:59.981Z,0
2017-09-15T00:27:01.871Z,0
2017-09-15T00:28:03.632Z,0
2017-09-15T00:29:05.396Z,0
2017-09-15T00:30:07.157Z,0
2017-09-15T00:31:08.891Z,0
2017-09-15T00:32:10.607Z,0
2017-09-15T00:33:12.420Z,0
2017-09-15T00:34:14.195Z,0
2017-09-15T00:35:16.022Z,0
2017-09-15T00:36:17.789Z,0
2017-09-15T00:37:19.547Z,0
2017-09-15T00:38:21.337Z,0
2017-09-15T00:39:23.133Z,0
2017-09-15T00:40:25.248Z,0
2017-09-15T00:41:27.356Z,0
2017-09-15T00:42:29.109Z,0
2017-09-15T00:43:30.860Z,0
2017-09-15T00:44:32.605Z,0
2017-09-15T00:45:34.885Z,0
2017-09-15T00:46:37.121Z,0
2017-09-15T00:47:39.156Z,0
2017-09-15T00:48:40.910Z,0
2017-09-15T00:49:42.666Z,0
2017-09-15T00:50:44.448Z,0
2017-09-15T00:51:46.150Z,0
2017-09-15T00:52:47.933Z,0
2017-09-15T00:53:49.667Z,0
2017-09-15T00:54:51.373Z,0
2017-09-15T00:55:53.712Z,0
2017-09-15T00:56:55.518Z,0
2017-09-15T00:57:57.274Z,0
2017-09-15T00:58:59.448Z,0
2017-09-15T01:00:01.249Z,0
2017-09-15T01:01:02.959Z,0
2017-09-15T01:02:04.732Z,0
2017-09-15T01:03:06.468Z,0
2017-09-15T01:04:08.212Z,0
2017-09-15T01:05:10.725Z,0
2017-09-15T01:06:12.985Z,0
2017-09-15T01:07:14.919Z,0
2017-09-15T01:08:16.758Z,0
2017-09-15T01:09:18.450Z,0
2017-09-15T01:10:20.957Z,0
2017-09-15T01:11:22.757Z,0
2017-09-15T01:12:24.486Z,0
2017-09-15T01:13:26.239Z,0
2017-09-15T01:14:28.016Z,0
2017-09-15T01:15:29.832Z,0
2017-09-15T01:16:31.563Z,0
2017-09-15T01:17:33.313Z,0
2017-09-15T01:18:35.035Z,0
2017-09-15T01:19:36.792Z,0
2017-09-15T01:20:38.568Z,0
2017-09-15T01:21:41.159Z,0
2017-09-15T01:22:43.470Z,0
2017-09-15T01:23:45.902Z,0
2017-09-15T01:24:47.694Z,0
2017-09-15T01:25:50.002Z,0
2017-09-15T01:26:52.415Z,0
2017-09-15T01:27:54.095Z,0
2017-09-15T01:28:56.418Z,0
2017-09-15T01:29:58.222Z,0
2017-09-15T01:30:59.949Z,0
2017-09-15T01:32:01.705Z,0
2017-09-15T01:33:03.429Z,0
2017-09-15T01:34:06.016Z,0
2017-09-15T01:35:08.022Z,0
2017-09-15T01:36:11.003Z,0
2017-09-15T01:37:12.800Z,0
2017-09-15T01:38:15.238Z,0
2017-09-15T01:39:17.132Z,0
2017-09-15T01:40:18.860Z,0
2017-09-15T01:41:20.701Z,0
2017-09-15T01:42:22.412Z,0
2017-09-15T01:43:24.236Z,0
2017-09-15T01:44:25.995Z,0
2017-09-15T01:45:27.738Z,0
2017-09-15T01:46:29.548Z,0
2017-09-15T01:47:31.284Z,0
2017-09-15T01:48:33.036Z,0
2017-09-15T01:49:36.375Z,0
2017-09-15T01:50:38.950Z,0
2017-09-15T01:51:40.746Z,0
2017-09-15T01:52:42.478Z,0
2017-09-15T01:53:44.273Z,0
2017-09-15T01:54:46.946Z,0
2017-09-15T01:55:48.921Z,0
2017-09-15T01:56:50.704Z,0
2017-09-15T01:57:52.488Z,0
2017-09-15T01:58:54.262Z,0
2017-09-15T01:59:56.189Z,0
2017-09-15T02:00:58.667Z,0
2017-09-15T02:02:01.404Z,0
2017-09-15T02:03:03.425Z,0
2017-09-15T02:04:05.205Z,0
2017-09-15T02:05:08.185Z,0
2017-09-15T02:06:10.940Z,0
2017-09-15T02:07:12.673Z,0
2017-09-15T02:08:15.554Z,0
2017-09-15T02:09:17.311Z,0
2017-09-15T02:10:19.056Z,0
2017-09-15T02:11:20.794Z,0
2017-09-15T02:12:22.565Z,0
2017-09-15T02:13:24.313Z,0
2017-09-15T02:14:26.065Z,0
2017-09-15T02:15:27.813Z,0
2017-09-15T02:16:30.687Z,0
2017-09-15T02:17:32.661Z,0
2017-09-15T02:18:34.392Z,0
2017-09-15T02:19:36.158Z,0
2017-09-15T02:20:37.919Z,0
2017-09-15T02:21:39.686Z,0
2017-09-15T02:22:41.406Z,0
2017-09-15T02:23:43.120Z,0
2017-09-15T02:24:45.909Z,0
2017-09-15T02:25:47.685Z,0
2017-09-15T02:26:49.426Z,0
2017-09-15T02:27:51.153Z,0
2017-09-15T02:28:52.938Z,0
2017-09-15T02:29:55.741Z,0
2017-09-15T02:30:58.226Z,0
2017-09-15T02:32:01.241Z,0
2017-09-15T02:33:03.126Z,0
2017-09-15T02:34:04.850Z,0
2017-09-15T02:35:06.620Z,0
2017-09-15T02:36:09.152Z,0
2017-09-15T02:37:10.991Z,0
2017-09-15T02:38:12.682Z,0
2017-09-15T02:39:14.418Z,0
2017-09-15T02:40:16.232Z,0
2017-09-15T02:41:19.323Z,0
2017-09-15T02:42:20.951Z,0
2017-09-15T02:43:22.669Z,0
2017-09-15T02:44:25.373Z,0
2017-09-15T02:45:28.198Z,0
2017-09-15T02:46:30.136Z,0
2017-09-15T02:47:31.865Z,0
2017-09-15T02:48:33.623Z,0
2017-09-15T02:49:35.392Z,0
2017-09-15T02:50:38.219Z,0
2017-09-15T02:51:40.942Z,0
2017-09-15T02:52:42.699Z,0
2017-09-15T02:53:44.449Z,0
2017-09-15T02:54:47.530Z,0
2017-09-15T02:55:49.266Z,0
2017-09-15T02:56:52.117Z,0
2017-09-15T02:57:53.930Z,0
2017-09-15T02:58:56.861Z,0
2017-09-15T02:59:58.604Z,0
2017-09-15T03:01:00.363Z,0
2017-09-15T03:02:02.107Z,0
2017-09-15T03:03:03.878Z,0
2017-09-15T03:04:05.624Z,0
2017-09-15T03:05:07.412Z,0
2017-09-15T03:06:09.138Z,0
2017-09-15T03:07:12.137Z,0
2017-09-15T03:08:13.850Z,0
2017-09-15T03:09:15.570Z,0
2017-09-15T03:10:17.313Z,0
2017-09-15T03:11:19.124Z,0
2017-09-15T03:12:20.869Z,0
2017-09-15T03:13:22.602Z,0
2017-09-15T03:14:26.385Z,0
2017-09-15T03:15:28.145Z,0
2017-09-15T03:16:29.901Z,0
2017-09-15T03:17:31.622Z,0
2017-09-15T03:18:33.361Z,0
2017-09-15T03:19:36.392Z,0
2017-09-15T03:20:38.180Z,0
2017-09-15T03:21:39.916Z,0
2017-09-15T03:22:42.797Z,0
2017-09-15T03:23:44.797Z,0
2017-09-15T03:24:46.509Z,0
2017-09-15T03:25:49.298Z,0
2017-09-15T03:26:51.205Z,0
2017-09-15T03:27:52.939Z,0
2017-09-15T03:28:56.117Z,0
2017-09-15T03:29:57.917Z,0
2017-09-15T03:30:59.682Z,0
2017-09-15T03:32:01.451Z,0
2017-09-15T03:33:03.220Z,0
2017-09-15T03:34:04.976Z,0
2017-09-15T03:35:07.688Z,0
2017-09-15T03:36:09.488Z,0
2017-09-15T03:37:11.235Z,0
2017-09-15T03:38:14.253Z,0
2017-09-15T03:39:16.435Z,0
2017-09-15T03:40:18.185Z,0
2017-09-15T03:41:21.025Z,0
2017-09-15T03:42:22.837Z,0
2017-09-15T03:43:25.646Z,0
2017-09-15T03:44:27.464Z,0
2017-09-15T03:45:29.246Z,0
2017-09-15T03:46:30.996Z,0
2017-09-15T03:47:33.893Z,0
2017-09-15T03:48:35.691Z,0
2017-09-15T03:49:37.391Z,0
2017-09-15T03:50:39.132Z,0
2017-09-15T03:51:40.953Z,0
2017-09-15T03:52:42.666Z,0
2017-09-15T03:53:46.249Z,0
2017-09-15T03:54:49.043Z,0
2017-09-15T03:55:50.847Z,0
2017-09-15T03:56:53.431Z,0
2017-09-15T03:57:56.056Z,0
2017-09-15T03:58:57.789Z,0
2017-09-15T03:59:59.532Z,0
2017-09-15T04:01:01.311Z,0
2017-09-15T04:02:03.064Z,0
2017-09-15T04:03:04.839Z,0
2017-09-15T04:04:06.629Z,0
2017-09-15T04:05:08.391Z,0
2017-09-15T04:06:10.203Z,0
2017-09-15T04:07:12.032Z,0
2017-09-15T04:08:15.032Z,0
2017-09-15T04:09:16.842Z,0
2017-09-15T04:10:18.669Z,0
2017-09-15T04:11:20.810Z,0
2017-09-15T04:12:22.500Z,0
2017-09-15T04:13:24.275Z,0
2017-09-15T04:14:26.019Z,0
2017-09-15T04:15:27.761Z,0
2017-09-15T04:16:29.551Z,0
2017-09-15T04:17:31.423Z,0
2017-09-15T04:18:34.518Z,0
2017-09-15T04:19:36.796Z,0
2017-09-15T04:20:38.613Z,0
2017-09-15T04:21:41.648Z,0
2017-09-15T04:22:44.622Z,0
2017-09-15T04:23:47.185Z,0
2017-09-15T04:24:49.011Z,0
2017-09-15T04:25:50.902Z,0
2017-09-15T04:26:52.772Z,0
2017-09-15T04:27:54.746Z,0
2017-09-15T04:28:56.630Z,0
2017-09-15T04:29:58.821Z,0
2017-09-15T04:31:00.762Z,0
2017-09-15T04:32:02.690Z,0
2017-09-15T04:33:04.623Z,0
2017-09-15T04:34:07.107Z,0
2017-09-15T04:35:09.607Z,0
2017-09-15T04:36:12.733Z,0
2017-09-15T04:37:15.082Z,0
2017-09-15T04:38:17.065Z,0
2017-09-15T04:39:19.888Z,0
2017-09-15T04:40:22.265Z,0
2017-09-15T04:41:25.892Z,0
2017-09-15T04:42:27.800Z,0
2017-09-15T04:43:29.731Z,0
2017-09-15T04:44:31.697Z,4
2017-09-15T04:45:33.957Z,0
2017-09-15T04:46:36.174Z,0
2017-09-15T04:47:38.220Z,4
2017-09-15T04:48:40.172Z,4
2017-09-15T04:49:44.586Z,0
2017-09-15T04:50:46.635Z,4
2017-09-15T04:51:49.326Z,4
2017-09-15T04:52:52.318Z,4
2017-09-15T04:53:54.947Z,4
2017-09-15T04:54:57.042Z,8
2017-09-15T04:55:59.035Z,8
2017-09-15T04:57:01.127Z,8
2017-09-15T04:58:03.578Z,12
2017-09-15T04:59:05.992Z,12
2017-09-15T05:00:08.214Z,16
2017-09-15T05:01:11.301Z,16
2017-09-15T05:02:14.119Z,20
2017-09-15T05:03:16.397Z,20
2017-09-15T05:04:18.532Z,24
2017-09-15T05:05:20.619Z,28
2017-09-15T05:06:22.814Z,32
2017-09-15T05:07:24.894Z,40
2017-09-15T05:08:26.944Z,40
2017-09-15T05:09:30.056Z,44
2017-09-15T05:10:32.358Z,56
2017-09-15T05:11:34.743Z,60
2017-09-15T05:12:37.035Z,64
2017-09-15T05:13:39.467Z,72
2017-09-15T05:14:41.595Z,72
2017-09-15T05:15:43.579Z,72
2017-09-15T05:16:45.869Z,80
2017-09-15T05:17:47.940Z,88
2017-09-15T05:18:50.524Z,96
2017-09-15T05:19:52.550Z,100
2017-09-15T05:20:54.923Z,108
2017-09-15T05:21:57.010Z,120
2017-09-15T05:22:59.371Z,132
2017-09-15T05:24:01.971Z,144
2017-09-15T05:25:04.033Z,156
2017-09-15T05:26:06.091Z,168
2017-09-15T05:27:08.125Z,184
2017-09-15T05:28:10.129Z,196
2017-09-15T05:29:12.212Z,204
2017-09-15T05:30:14.180Z,216
2017-09-15T05:31:16.305Z,228
2017-09-15T05:32:18.605Z,240
2017-09-15T05:33:20.603Z,252
2017-09-15T05:34:22.497Z,264
2017-09-15T05:35:24.535Z,276
2017-09-15T05:36:26.584Z,280
2017-09-15T05:37:28.637Z,284
2017-09-15T05:38:30.501Z,292
2017-09-15T05:39:32.540Z,292
2017-09-15T05:40:36.280Z,272
2017-09-15T05:41:40.967Z,236
2017-09-15T05:42:43.035Z,236
2017-09-15T05:43:47.790Z,236
2017-09-15T05:44:50.078Z,232
2017-09-15T05:45:52.285Z,232
2017-09-15T05:46:54.585Z,232
2017-09-15T05:47:57.736Z,248
2017-09-15T05:48:59.642Z,260
2017-09-15T05:50:03.636Z,288
2017-09-15T05:51:07.294Z,304
2017-09-15T05:52:12.570Z,316
2017-09-15T05:53:14.303Z,332
2017-09-15T05:54:17.859Z,344
2017-09-15T05:55:19.752Z,332
2017-09-15T05:56:21.791Z,332
2017-09-15T05:57:23.732Z,328
2017-09-15T05:58:25.627Z,356
2017-09-15T05:59:28.475Z,412
2017-09-15T06:00:30.349Z,472
2017-09-15T06:01:32.281Z,528
2017-09-15T06:02:34.380Z,580
2017-09-15T06:03:36.784Z,628
2017-09-15T06:04:38.905Z,636
2017-09-15T06:05:40.642Z,656
2017-09-15T06:06:42.492Z,712
2017-09-15T06:07:44.250Z,792
2017-09-15T06:08:46.013Z,828
2017-09-15T06:09:48.144Z,832
2017-09-15T06:10:50.462Z,716
2017-09-15T06:11:52.592Z,712
2017-09-15T06:12:54.636Z,772
2017-09-15T06:13:56.558Z,804
2017-09-15T06:14:58.600Z,820
2017-09-15T06:16:00.639Z,884
2017-09-15T06:17:02.406Z,944
2017-09-15T06:18:04.196Z,988
2017-09-15T06:19:05.920Z,952
2017-09-15T06:20:07.711Z,856
2017-09-15T06:21:09.446Z,832
2017-09-15T06:22:11.295Z,804
2017-09-15T06:23:13.216Z,728
2017-09-15T06:24:15.966Z,704
2017-09-15T06:25:17.656Z,628
2017-09-15T06:26:19.427Z,600
2017-09-15T06:27:21.284Z,584
2017-09-15T06:28:23.064Z,564
2017-09-15T06:29:24.809Z,532
2017-09-15T06:30:26.515Z,500
2017-09-15T06:31:28.396Z,472
2017-09-15T06:32:30.246Z,524
2017-09-15T06:33:31.994Z,636
2017-09-15T06:34:33.715Z,648
2017-09-15T06:35:35.534Z,620
2017-09-15T06:36:38.707Z,632
2017-09-15T06:37:40.700Z,708
2017-09-15T06:38:42.539Z,784
2017-09-15T06:39:44.310Z,828
2017-09-15T06:40:46.313Z,896
2017-09-15T06:41:48.090Z,1040
2017-09-15T06:42:49.887Z,1096
2017-09-15T06:43:51.678Z,1064
2017-09-15T06:44:53.673Z,1024
2017-09-15T06:45:56.262Z,1020
2017-09-15T06:46:58.538Z,1012
2017-09-15T06:48:00.364Z,868
2017-09-15T06:49:02.757Z,744
2017-09-15T06:50:04.541Z,812
2017-09-15T06:51:06.345Z,1020
2017-09-15T06:52:08.077Z,1240
2017-09-15T06:53:10.518Z,1332
2017-09-15T06:54:12.215Z,1424
2017-09-15T06:55:14.015Z,1344
2017-09-15T06:56:16.728Z,1388
2017-09-15T06:57:19.278Z,1580
2017-09-15T06:58:21.758Z,1788
2017-09-15T06:59:23.450Z,1916
2017-09-15T07:00:25.491Z,1872
2017-09-15T07:01:27.239Z,1888
2017-09-15T07:02:28.980Z,2168
2017-09-15T07:03:30.909Z,2284
2017-09-15T07:04:33.276Z,2368
2017-09-15T07:05:35.689Z,2556
2017-09-15T07:06:38.149Z,2808
2017-09-15T07:07:40.249Z,2880
2017-09-15T07:08:42.118Z,2836
2017-09-15T07:09:44.853Z,2700
2017-09-15T07:10:46.569Z,2668
2017-09-15T07:11:48.321Z,2988
2017-09-15T07:12:50.094Z,2972
2017-09-15T07:13:51.862Z,2552
2017-09-15T07:14:53.730Z,2252
2017-09-15T07:15:55.875Z,2252
2017-09-15T07:16:58.103Z,2376
2017-09-15T07:18:00.075Z,2436
2017-09-15T07:19:01.861Z,2592
2017-09-15T07:20:03.881Z,2688
2017-09-15T07:21:06.123Z,2668
2017-09-15T07:22:08.736Z,2056
2017-09-15T07:23:10.444Z,1796
2017-09-15T07:24:12.549Z,1616
2017-09-15T07:25:14.557Z,1572
2017-09-15T07:26:16.385Z,1700
2017-09-15T07:27:18.198Z,1800
2017-09-15T07:28:20.190Z,1748
2017-09-15T07:29:22.300Z,1588
2017-09-15T07:30:24.309Z,1532
2017-09-15T07:31:27.265Z,1828
2017-09-15T07:32:29.570Z,2020
2017-09-15T07:33:32.323Z,1816
2017-09-15T07:34:34.739Z,1684
2017-09-15T07:35:37.713Z,1560
2017-09-15T07:36:41.130Z,1472
2017-09-15T07:37:43.101Z,1524
2017-09-15T07:38:45.936Z,2000
2017-09-15T07:39:47.706Z,2080
2017-09-15T07:40:49.647Z,2288
2017-09-15T07:41:51.462Z,2892
2017-09-15T07:42:54.749Z,3140
2017-09-15T07:43:57.263Z,2828
2017-09-15T07:45:00.285Z,2384
2017-09-15T07:46:02.040Z,2788
2017-09-15T07:47:03.807Z,2672
2017-09-15T07:48:05.770Z,2412
2017-09-15T07:49:10.364Z,1768
2017-09-15T07:50:12.125Z,2168
2017-09-15T07:51:14.624Z,2496
2017-09-15T07:52:16.574Z,2736
2017-09-15T07:53:19.153Z,2820
2017-09-15T07:54:22.576Z,3040
2017-09-15T07:55:24.360Z,3068
2017-09-15T07:56:26.236Z,3108
2017-09-15T07:57:28.071Z,3028
2017-09-15T07:58:29.872Z,2636
2017-09-15T07:59:32.264Z,2476
2017-09-15T08:00:34.203Z,2428
2017-09-15T08:01:35.986Z,2404
2017-09-15T08:02:37.765Z,2688
2017-09-15T08:03:40.461Z,3056
2017-09-15T08:04:42.883Z,3236
2017-09-15T08:05:45.267Z,3424
2017-09-15T08:06:47.678Z,3432
2017-09-15T08:07:49.417Z,3160
2017-09-15T08:08:51.301Z,3172
2017-09-15T08:09:53.023Z,2928
2017-09-15T08:10:55.615Z,2720
2017-09-15T08:11:57.336Z,2796
2017-09-15T08:12:59.041Z,2840
2017-09-15T08:14:00.796Z,2996
2017-09-15T08:15:02.658Z,3208
2017-09-15T08:16:04.414Z,3308
2017-09-15T08:17:06.235Z,3424
2017-09-15T08:18:08.070Z,3348
2017-09-15T08:19:09.885Z,2988
2017-09-15T08:20:11.666Z,2324
2017-09-15T08:21:13.362Z,2272
2017-09-15T08:22:15.116Z,2796
2017-09-15T08:23:16.907Z,3620
2017-09-15T08:24:18.648Z,3944
2017-09-15T08:25:21.042Z,4076
2017-09-15T08:26:23.769Z,3552
2017-09-15T08:27:25.871Z,3136
2017-09-15T08:28:27.594Z,2836
2017-09-15T08:29:30.000Z,2352
2017-09-15T08:30:32.619Z,1892
2017-09-15T08:31:34.975Z,1404
2017-09-15T08:32:36.708Z,1496
2017-09-15T08:33:38.384Z,1352
2017-09-15T08:34:40.064Z,1076
2017-09-15T08:35:41.767Z,1236
2017-09-15T08:36:43.467Z,1416
2017-09-15T08:37:45.244Z,1492
2017-09-15T08:38:47.106Z,1520
2017-09-15T08:39:48.786Z,1760
2017-09-15T08:40:50.471Z,2208
2017-09-15T08:41:52.335Z,2600
2017-09-15T08:42:54.054Z,2932
2017-09-15T08:43:55.787Z,2752
2017-09-15T08:44:57.671Z,2672
2017-09-15T08:45:59.826Z,2416
2017-09-15T08:47:01.544Z,2628
2017-09-15T08:48:03.386Z,3372
2017-09-15T08:49:05.063Z,4368
2017-09-15T08:50:06.795Z,5556
2017-09-15T08:51:08.573Z,6016
2017-09-15T08:52:10.331Z,6564
2017-09-15T08:53:12.172Z,6416
2017-09-15T08:54:13.948Z,7556
2017-09-15T08:55:15.687Z,6992
2017-09-15T08:56:18.223Z,8032
2017-09-15T08:57:19.912Z,9400
2017-09-15T08:58:22.467Z,11016
2017-09-15T08:59:24.190Z,10724
2017-09-15T09:00:25.900Z,20032
2017-09-15T09:01:27.605Z,25696
2017-09-15T09:02:29.320Z,14300
2017-09-15T09:03:31.086Z,18208
2017-09-15T09:04:32.835Z,9016
2017-09-15T09:05:34.557Z,9696
2017-09-15T09:06:36.389Z,18272
2017-09-15T09:07:38.110Z,18048
2017-09-15T09:08:39.885Z,21408
2017-09-15T09:09:41.614Z,23360
2017-09-15T09:10:43.832Z,12400
2017-09-15T09:11:46.386Z,44736
2017-09-15T09:12:48.323Z,14508
2017-09-15T09:13:50.057Z,8492
2017-09-15T09:14:51.829Z,19296
2017-09-15T09:15:53.600Z,10412
2017-09-15T09:16:55.450Z,6064
2017-09-15T09:17:57.189Z,3852
2017-09-15T09:18:58.903Z,3000
2017-09-15T09:20:01.474Z,3244
2017-09-15T09:21:03.338Z,4116
2017-09-15T09:22:05.083Z,4440
2017-09-15T09:23:06.777Z,5068
2017-09-15T09:24:08.656Z,6028
2017-09-15T09:25:10.464Z,5076
2017-09-15T09:26:12.241Z,5308
2017-09-15T09:27:14.165Z,5412
2017-09-15T09:28:15.836Z,4068
2017-09-15T09:29:18.579Z,3548
2017-09-15T09:30:20.648Z,3960
2017-09-15T09:31:22.409Z,3540
2017-09-15T09:32:24.137Z,3184
2017-09-15T09:33:25.927Z,3176
2017-09-15T09:34:27.700Z,2980
2017-09-15T09:35:29.610Z,2744
2017-09-15T09:36:31.733Z,2192
2017-09-15T09:37:33.460Z,1976
2017-09-15T09:38:35.198Z,1880
2017-09-15T09:39:36.939Z,2164
2017-09-15T09:40:38.654Z,2192
2017-09-15T09:41:40.389Z,2280
2017-09-15T09:42:42.109Z,2208
2017-09-15T09:43:43.845Z,2136
2017-09-15T09:44:45.598Z,2192
2017-09-15T09:45:47.352Z,2292
2017-09-15T09:46:49.085Z,2168
2017-09-15T09:47:50.913Z,2156
2017-09-15T09:48:52.689Z,2344
2017-09-15T09:49:54.442Z,2704
2017-09-15T09:50:56.157Z,2972
2017-09-15T09:51:57.859Z,3232
2017-09-15T09:52:59.604Z,3504
2017-09-15T09:54:01.314Z,3560
2017-09-15T09:55:03.048Z,3840
2017-09-15T09:56:04.744Z,4332
2017-09-15T09:57:06.462Z,4456
2017-09-15T09:58:08.352Z,5272
2017-09-15T09:59:10.114Z,6680
2017-09-15T10:00:11.908Z,9320
2017-09-15T10:01:13.674Z,13224
2017-09-15T10:02:15.471Z,13592
2017-09-15T10:03:17.207Z,12492
2017-09-15T10:04:18.943Z,11364
2017-09-15T10:05:20.695Z,10848
2017-09-15T10:06:22.471Z,11536
2017-09-15T10:07:24.253Z,16832
2017-09-15T10:08:26.003Z,11360
2017-09-15T10:09:27.738Z,14036
2017-09-15T10:10:29.466Z,25376
2017-09-15T10:11:31.198Z,10136
2017-09-15T10:12:32.937Z,10700
2017-09-15T10:13:34.615Z,13220
2017-09-15T10:14:36.334Z,14288
2017-09-15T10:15:38.064Z,17536
2017-09-15T10:16:39.798Z,14696
2017-09-15T10:17:41.558Z,11040
2017-09-15T10:18:43.339Z,13356
2017-09-15T10:19:45.063Z,8152
2017-09-15T10:20:46.743Z,7956
2017-09-15T10:21:48.640Z,10272
2017-09-15T10:22:50.353Z,8676
2017-09-15T10:23:52.177Z,7740
2017-09-15T10:24:54.031Z,8988
2017-09-15T10:25:55.999Z,9964
2017-09-15T10:26:57.744Z,13416
2017-09-15T10:28:00.214Z,15328
2017-09-15T10:29:02.018Z,14528
2017-09-15T10:30:03.879Z,12024
2017-09-15T10:31:05.628Z,16128
2017-09-15T10:32:07.831Z,9112
2017-09-15T10:33:10.063Z,7960
2017-09-15T10:34:12.101Z,8300
2017-09-15T10:35:13.935Z,7096
2017-09-15T10:36:15.661Z,5424
2017-09-15T10:37:17.428Z,6324
2017-09-15T10:38:20.211Z,17312
2017-09-15T10:39:21.895Z,16032
2017-09-15T10:40:23.705Z,8808
2017-09-15T10:41:25.492Z,6176
2017-09-15T10:42:27.239Z,5184
2017-09-15T10:43:28.924Z,4736
2017-09-15T10:44:30.681Z,4540
2017-09-15T10:45:32.476Z,4356
2017-09-15T10:46:34.878Z,4264
2017-09-15T10:47:36.572Z,4248
2017-09-15T10:48:38.356Z,4132
2017-09-15T10:49:40.091Z,4108
2017-09-15T10:50:41.800Z,4112
2017-09-15T10:51:43.635Z,4152
2017-09-15T10:52:45.924Z,4428
2017-09-15T10:53:47.687Z,4856
2017-09-15T10:54:50.166Z,5348
2017-09-15T10:55:51.884Z,6104
2017-09-15T10:56:53.596Z,7112
2017-09-15T10:57:55.367Z,8724
2017-09-15T10:58:57.099Z,10228
2017-09-15T10:59:58.793Z,12316
2017-09-15T11:01:00.579Z,14728
2017-09-15T11:02:02.255Z,45728
2017-09-15T11:03:04.000Z,19712
2017-09-15T11:04:05.944Z,17152
2017-09-15T11:05:07.738Z,17376
2017-09-15T11:06:09.568Z,19680
2017-09-15T11:07:11.333Z,26976
2017-09-15T11:08:13.073Z,20800
2017-09-15T11:09:14.794Z,36128
2017-09-15T11:10:16.515Z,69472
2017-09-15T11:11:18.253Z,24064
2017-09-15T11:12:20.142Z,35392
2017-09-15T11:13:21.871Z,45984
2017-09-15T11:14:23.684Z,24224
2017-09-15T11:15:25.555Z,27296
2017-09-15T11:16:27.776Z,50336
2017-09-15T11:17:29.951Z,46880
2017-09-15T11:18:32.115Z,34176
2017-09-15T11:19:33.860Z,45952
2017-09-15T11:20:35.631Z,41664
2017-09-15T11:21:37.553Z,19872
2017-09-15T11:22:39.273Z,54272
2017-09-15T11:23:41.026Z,63808
2017-09-15T11:24:42.743Z,22272
2017-09-15T11:25:45.114Z,14340
2017-09-15T11:26:46.888Z,19584
2017-09-15T11:27:48.602Z,9300
2017-09-15T11:28:50.332Z,11652
2017-09-15T11:29:52.083Z,76800
2017-09-15T11:30:53.831Z,8816
2017-09-15T11:31:55.595Z,32928
2017-09-15T11:32:57.429Z,9212
2017-09-15T11:33:59.212Z,50080
2017-09-15T11:35:01.133Z,12692
2017-09-15T11:36:02.787Z,12252
2017-09-15T11:37:04.537Z,12076
2017-09-15T11:38:06.308Z,49824
2017-09-15T11:39:08.001Z,55744
2017-09-15T11:40:09.888Z,52704
2017-09-15T11:41:11.624Z,56224
2017-09-15T11:42:13.377Z,54080
2017-09-15T11:43:15.411Z,52576
2017-09-15T11:44:17.568Z,46912
2017-09-15T11:45:19.288Z,15656
2017-09-15T11:46:21.001Z,46112
2017-09-15T11:47:22.642Z,43904
2017-09-15T11:48:24.336Z,45056
2017-09-15T11:49:26.041Z,39104
2017-09-15T11:50:27.875Z,46336
2017-09-15T11:51:29.541Z,19296
2017-09-15T11:52:31.609Z,39904
2017-09-15T11:53:33.515Z,20736
2017-09-15T11:54:35.257Z,37504
2017-09-15T11:55:36.905Z,21888
2017-09-15T11:56:38.590Z,11300
2017-09-15T11:57:40.297Z,5636
2017-09-15T11:58:42.060Z,5940
2017-09-15T11:59:43.882Z,6372
2017-09-15T12:00:45.786Z,4356
2017-09-15T12:01:47.961Z,3140
2017-09-15T12:02:49.697Z,2208
2017-09-15T12:03:51.418Z,1676
2017-09-15T12:04:53.112Z,1376
2017-09-15T12:05:54.840Z,1348
2017-09-15T12:06:56.569Z,1716
2017-09-15T12:07:58.333Z,2776
2017-09-15T12:09:00.063Z,6588
2017-09-15T12:10:01.821Z,9340
2017-09-15T12:11:03.582Z,42784
2017-09-15T12:12:05.324Z,8932
2017-09-15T12:13:07.023Z,7328
2017-09-15T12:14:09.087Z,7672
2017-09-15T12:15:10.766Z,7108
2017-09-15T12:16:12.463Z,7752
2017-09-15T12:17:14.177Z,10656
2017-09-15T12:18:16.005Z,11252
2017-09-15T12:19:18.004Z,11932
2017-09-15T12:20:19.828Z,13688
2017-09-15T12:21:22.268Z,12544
2017-09-15T12:22:23.972Z,13628
2017-09-15T12:23:25.701Z,20544
2017-09-15T12:24:27.434Z,10596
2017-09-15T12:25:29.196Z,10052
2017-09-15T12:26:30.932Z,7976
2017-09-15T12:27:32.678Z,5724
2017-09-15T12:28:34.404Z,5332
2017-09-15T12:29:36.163Z,4216
2017-09-15T12:30:37.885Z,4276
2017-09-15T12:31:39.615Z,3456
2017-09-15T12:32:41.393Z,2976
2017-09-15T12:33:43.177Z,2700
2017-09-15T12:34:45.062Z,2612
2017-09-15T12:35:46.792Z,2792
2017-09-15T12:36:48.550Z,3128
2017-09-15T12:37:50.300Z,4384
2017-09-15T12:38:52.050Z,4936
2017-09-15T12:39:53.747Z,5500
2017-09-15T12:40:55.510Z,7100
2017-09-15T12:41:57.301Z,11968
2017-09-15T12:42:59.042Z,17152
2017-09-15T12:44:01.556Z,20640
2017-09-15T12:45:03.178Z,8944
2017-09-15T12:46:04.894Z,5944
2017-09-15T12:47:06.756Z,5792
2017-09-15T12:48:08.598Z,5480
2017-09-15T12:49:10.505Z,4916
2017-09-15T12:50:12.287Z,5792
2017-09-15T12:51:14.016Z,21312
2017-09-15T12:52:15.732Z,21600
2017-09-15T12:53:17.419Z,13044
2017-09-15T12:54:19.213Z,17792
2017-09-15T12:55:21.086Z,22624
2017-09-15T12:56:22.810Z,12140
2017-09-15T12:57:24.519Z,11540
2017-09-15T12:58:26.359Z,60160
2017-09-15T12:59:28.072Z,10868
2017-09-15T13:00:29.874Z,7840
2017-09-15T13:01:31.560Z,7308
2017-09-15T13:02:33.335Z,9668
2017-09-15T13:03:35.108Z,14996
2017-09-15T13:04:37.038Z,9452
2017-09-15T13:05:38.831Z,6924
2017-09-15T13:06:40.544Z,4416
2017-09-15T13:07:42.300Z,3476
2017-09-15T13:08:44.812Z,3160
2017-09-15T13:09:46.544Z,3068
2017-09-15T13:10:48.306Z,2988
2017-09-15T13:11:50.055Z,3004
2017-09-15T13:12:51.779Z,3528
2017-09-15T13:13:53.512Z,8096
2017-09-15T13:14:55.628Z,6376
2017-09-15T13:15:58.008Z,7012
2017-09-15T13:16:59.777Z,7252
2017-09-15T13:18:01.524Z,6848
2017-09-15T13:19:03.376Z,5816
2017-09-15T13:20:05.125Z,5816
2017-09-15T13:21:06.948Z,17184
2017-09-15T13:22:08.712Z,27840
2017-09-15T13:23:10.476Z,14764
2017-09-15T13:24:12.258Z,61248
2017-09-15T13:25:14.448Z,65408
2017-09-15T13:26:16.373Z,65600
2017-09-15T13:27:18.106Z,67200
2017-09-15T13:28:19.771Z,68096
2017-09-15T13:29:21.464Z,26720
2017-09-15T13:30:23.235Z,9164
2017-09-15T13:31:24.975Z,9640
2017-09-15T13:32:26.717Z,11440
2017-09-15T13:33:37.431Z,22464
2017-09-15T13:34:39.976Z,9048
2017-09-15T13:35:42.368Z,7696
2017-09-15T13:36:44.175Z,6860
2017-09-15T13:37:46.097Z,5920
2017-09-15T13:38:47.902Z,4748
2017-09-15T13:39:49.899Z,4036
2017-09-15T13:40:52.097Z,3544
2017-09-15T13:41:54.262Z,3192
2017-09-15T13:42:56.157Z,2856
2017-09-15T13:43:57.953Z,2792
2017-09-15T13:44:59.780Z,2876
2017-09-15T13:46:01.542Z,3084
2017-09-15T13:47:03.337Z,4368
2017-09-15T13:48:05.109Z,11036
2017-09-15T13:49:06.899Z,7472
2017-09-15T13:50:08.674Z,11184
2017-09-15T13:51:10.456Z,9360
2017-09-15T13:52:12.242Z,9976
2017-09-15T13:53:14.092Z,9196
2017-09-15T13:54:15.890Z,9060
2017-09-15T13:55:17.812Z,8916
2017-09-15T13:56:19.534Z,8160
2017-09-15T13:57:21.389Z,7372
2017-09-15T13:58:23.355Z,6528
2017-09-15T13:59:25.141Z,5884
2017-09-15T14:00:27.259Z,6552
2017-09-15T14:01:29.493Z,8032
2017-09-15T14:02:31.277Z,8900
2017-09-15T14:03:32.994Z,8188
2017-09-15T14:04:35.287Z,6968
2017-09-15T14:05:37.334Z,5716
2017-09-15T14:06:39.119Z,4588
2017-09-15T14:07:40.852Z,3676
2017-09-15T14:08:42.654Z,3076
2017-09-15T14:09:44.482Z,2780
2017-09-15T14:10:46.244Z,2560
2017-09-15T14:11:48.013Z,2244
2017-09-15T14:12:49.763Z,1788
2017-09-15T14:13:51.536Z,1452
2017-09-15T14:14:53.731Z,1228